createdAt,value
2018-04-10T05:07:39.989Z,13.64
2018-04-10T05:10:08.599Z,12.95
2018-04-10T05:12:37.257Z,13.44
2018-04-10T05:15:06.107Z,12.99
2018-04-10T05:17:34.555Z,13.38
2018-04-10T05:20:03.000Z,13.99
2018-04-10T05:22:31.396Z,14.11
2018-04-10T05:25:00.105Z,14.19
2018-04-10T05:27:28.998Z,14.68
2018-04-10T05:29:57.635Z,14.67
2018-04-10T05:32:26.132Z,14.40
2018-04-10T05:34:54.936Z,14.91
2018-04-10T05:37:22.963Z,14.91
2018-04-10T05:39:51.044Z,14.79
2018-04-10T05:42:19.034Z,14.85
2018-04-10T05:44:47.059Z,14.68
2018-04-10T05:47:15.026Z,15.18
2018-04-10T05:49:43.045Z,15.49
2018-04-10T05:52:11.274Z,15.79
2018-04-10T05:54:39.750Z,16.22
2018-04-10T05:57:08.485Z,16.27
2018-04-10T05:59:37.157Z,15.62
2018-04-10T06:02:05.737Z,16.49
2018-04-10T06:04:34.237Z,15.32
2018-04-10T06:07:02.905Z,15.42
2018-04-10T06:09:31.763Z,15.81
2018-04-10T06:12:00.519Z,16.09
2018-04-10T06:14:29.189Z,16.09
2018-04-10T06:16:57.408Z,16.64
2018-04-10T06:19:25.470Z,17.02
2018-04-10T06:21:53.496Z,16.41
2018-04-10T06:24:21.503Z,16.48
2018-04-10T06:26:49.621Z,16.96
2018-04-10T06:29:17.579Z,16.45
2018-04-10T06:31:45.523Z,16.12
2018-04-10T06:34:13.595Z,17.33
2018-04-10T06:36:41.706Z,18.11
2018-04-10T06:39:09.969Z,19.30
2018-04-10T06:41:37.977Z,18.63
2018-04-10T06:44:05.929Z,18.57
2018-04-10T06:46:33.950Z,19.16
2018-04-10T06:49:01.992Z,19.20
2018-04-10T06:51:29.893Z,19.49
2018-04-10T06:53:57.948Z,19.24
2018-04-10T06:56:25.960Z,20.66
2018-04-10T06:58:53.929Z,20.66
2018-04-10T07:01:21.984Z,20.54
2018-04-10T07:03:50.003Z,21.17
2018-04-10T07:09:16.055Z,21.99
2018-04-10T07:11:44.559Z,22.60
2018-04-10T07:14:12.839Z,22.73
2018-04-10T07:16:40.782Z,22.46
2018-04-10T07:19:08.771Z,22.03
2018-04-10T07:21:36.708Z,23.02
2018-04-10T07:24:04.735Z,22.17
2018-04-10T07:26:32.775Z,22.22
2018-04-10T07:29:00.806Z,23.22
2018-04-10T07:31:28.920Z,23.52
2018-04-10T07:33:56.946Z,22.97
2018-04-10T07:36:24.888Z,22.77
2018-04-10T07:38:53.003Z,23.45
2018-04-10T07:41:21.562Z,23.49
2018-04-10T07:43:49.576Z,24.49
2018-04-10T07:46:17.584Z,24.68
2018-04-10T07:48:45.576Z,24.40
2018-04-10T07:51:13.545Z,23.74
2018-04-10T07:53:41.534Z,23.60
2018-04-10T07:56:09.502Z,24.39
2018-04-10T07:58:37.533Z,24.72
2018-04-10T08:01:05.581Z,24.09
2018-04-10T08:03:33.566Z,24.87
2018-04-10T08:06:01.551Z,24.55
2018-04-10T08:08:29.623Z,23.03
2018-04-10T08:10:57.632Z,24.60
2018-04-10T08:13:26.429Z,24.78
2018-04-10T08:15:54.381Z,24.62
2018-04-10T08:18:22.373Z,25.60
2018-04-10T08:20:50.351Z,26.00
2018-04-10T08:23:18.402Z,25.67
2018-04-10T08:25:46.424Z,25.57
2018-04-10T08:28:14.446Z,25.05
2018-04-10T08:30:42.436Z,24.83
2018-04-10T08:33:10.432Z,26.07
2018-04-10T08:35:38.446Z,25.92
2018-04-10T08:38:06.433Z,26.14
2018-04-10T08:40:34.409Z,25.57
2018-04-10T08:43:02.528Z,26.13
2018-04-10T08:45:30.576Z,27.42
2018-04-10T08:47:58.582Z,27.66
2018-04-10T08:50:26.571Z,26.63
2018-04-10T08:52:54.525Z,27.76
2018-04-10T08:55:22.516Z,28.40
2018-04-10T08:57:50.519Z,27.75
2018-04-10T09:00:18.537Z,27.97
2018-04-10T09:02:46.591Z,29.04
2018-04-10T09:05:14.584Z,27.49
2018-04-10T09:07:42.601Z,28.22
2018-04-10T09:10:10.626Z,28.77
2018-04-10T09:12:38.616Z,28.72
2018-04-10T09:15:07.235Z,28.75
2018-04-10T09:17:35.176Z,28.65
2018-04-10T09:20:03.171Z,29.37
2018-04-10T09:22:31.224Z,30.73
2018-04-10T09:24:59.259Z,31.13
2018-04-10T09:27:27.199Z,30.86
2018-04-10T09:29:55.246Z,30.06
2018-04-10T09:32:23.250Z,30.34
2018-04-10T09:34:51.242Z,30.96
2018-04-10T09:37:19.349Z,30.19
2018-04-10T09:39:47.396Z,29.64
2018-04-10T09:42:15.479Z,29.09
2018-04-10T09:44:43.545Z,29.42
2018-04-10T09:47:11.497Z,30.16
2018-04-10T09:49:39.520Z,30.15
2018-04-10T09:52:07.496Z,30.94
2018-04-10T09:54:35.516Z,30.59
2018-04-10T09:57:03.472Z,30.26
2018-04-10T09:59:31.440Z,31.83
2018-04-10T10:01:59.444Z,30.85
2018-04-10T10:04:27.528Z,31.67
2018-04-10T10:06:55.569Z,32.45
2018-04-10T10:09:23.589Z,32.05
2018-04-10T10:11:51.689Z,30.44
2018-04-10T10:14:19.585Z,31.20
2018-04-10T10:16:48.264Z,31.99
2018-04-10T10:19:16.217Z,32.23
2018-04-10T10:21:44.265Z,31.25
2018-04-10T10:24:12.293Z,31.93
2018-04-10T10:26:40.306Z,32.55
2018-04-10T10:29:08.329Z,31.17
2018-04-10T10:31:36.342Z,30.70
2018-04-10T10:34:04.322Z,32.04
2018-04-10T10:36:32.282Z,32.30
2018-04-10T10:39:00.345Z,33.75
2018-04-10T10:41:28.470Z,32.79
2018-04-10T10:43:56.453Z,32.92
2018-04-10T10:46:24.525Z,30.70
2018-04-10T10:48:52.557Z,31.92
2018-04-10T10:51:20.597Z,32.31
2018-04-10T10:53:48.711Z,33.12
2018-04-10T10:56:16.754Z,33.08
2018-04-10T10:58:44.732Z,32.00
2018-04-10T11:01:12.761Z,31.73
2018-04-10T11:03:40.821Z,30.45
2018-04-10T11:06:08.815Z,30.94
2018-04-10T11:08:36.852Z,32.46
2018-04-10T11:11:04.786Z,32.71
2018-04-10T11:13:32.784Z,32.29
2018-04-10T11:16:00.807Z,31.58
2018-04-10T11:18:29.318Z,30.79
2018-04-10T11:20:57.353Z,31.79
2018-04-10T11:23:25.378Z,31.88
2018-04-10T11:25:53.396Z,30.96
2018-04-10T11:28:21.419Z,31.83
2018-04-10T11:30:49.372Z,32.48
2018-04-10T11:33:17.367Z,33.27
2018-04-10T11:35:45.374Z,33.31
2018-04-10T11:38:13.403Z,33.36
2018-04-10T11:40:41.415Z,32.29
2018-04-10T11:43:09.483Z,31.39
2018-04-10T11:45:37.509Z,33.13
2018-04-10T11:48:05.550Z,32.59
2018-04-10T11:50:33.675Z,31.13
2018-04-10T11:53:01.712Z,31.91
2018-04-10T11:55:29.695Z,32.69
2018-04-10T11:57:57.704Z,30.65
2018-04-10T12:00:25.758Z,30.24
2018-04-10T12:02:53.777Z,29.26
2018-04-10T12:05:21.814Z,29.26
2018-04-10T12:07:49.821Z,28.95
2018-04-10T12:10:17.856Z,28.44
2018-04-10T12:12:45.881Z,28.75
2018-04-10T12:15:13.851Z,29.98
2018-04-10T12:17:41.874Z,30.60
2018-04-10T12:20:10.389Z,30.89
2018-04-10T12:22:38.452Z,31.33
2018-04-10T12:25:06.538Z,29.26
2018-04-10T12:27:34.569Z,28.63
2018-04-10T12:30:02.558Z,29.20
2018-04-10T12:32:30.577Z,28.42
2018-04-10T12:34:58.655Z,27.13
2018-04-10T12:37:26.669Z,28.03
2018-04-10T12:39:54.605Z,28.70
2018-04-10T12:42:22.694Z,28.09
2018-04-10T12:44:50.729Z,28.33
2018-04-10T12:47:18.692Z,28.42
2018-04-10T12:49:46.706Z,28.83
2018-04-10T12:52:14.758Z,28.94
2018-04-10T12:54:42.782Z,29.02
2018-04-10T12:57:10.769Z,29.90
2018-04-10T12:59:38.727Z,30.28
2018-04-10T13:02:06.885Z,29.40
2018-04-10T13:04:34.988Z,29.74
2018-04-10T13:07:02.965Z,30.20
2018-04-10T13:09:30.970Z,29.63
2018-04-10T13:11:58.973Z,28.29
2018-04-10T13:14:26.966Z,28.02
2018-04-10T13:16:54.965Z,28.50
2018-04-10T13:19:22.947Z,27.86
2018-04-10T13:21:51.301Z,27.85
2018-04-10T13:24:19.375Z,28.34
2018-04-10T13:26:47.368Z,28.04
2018-04-10T13:29:15.403Z,28.07
2018-04-10T13:31:43.471Z,28.16
2018-04-10T13:34:11.464Z,28.65
2018-04-10T13:36:39.456Z,28.62
2018-04-10T13:39:07.462Z,29.62
2018-04-10T13:41:35.509Z,29.75
2018-04-10T13:44:03.479Z,29.57
2018-04-10T13:46:31.472Z,30.37
2018-04-10T13:48:59.495Z,29.84
2018-04-10T13:51:27.540Z,29.79
2018-04-10T13:53:55.526Z,30.29
2018-04-10T13:56:23.511Z,29.44
2018-04-10T13:58:51.591Z,29.78
2018-04-10T14:01:19.636Z,30.45
2018-04-10T14:03:47.813Z,30.84
2018-04-10T14:06:15.783Z,29.83
2018-04-10T14:08:43.875Z,29.23
2018-04-10T14:11:11.910Z,28.80
2018-04-10T14:13:39.891Z,29.56
2018-04-10T14:16:07.923Z,28.94
2018-04-10T14:18:35.902Z,29.52
2018-04-10T14:21:03.923Z,28.80
2018-04-10T14:23:32.486Z,28.47
2018-04-10T14:26:00.589Z,28.73
2018-04-10T14:28:28.590Z,28.41
2018-04-10T14:30:56.673Z,28.92
2018-04-10T14:33:24.730Z,28.66
2018-04-10T14:35:52.775Z,28.22
2018-04-10T14:38:20.794Z,28.00
2018-04-10T14:40:48.745Z,28.27
2018-04-10T14:43:16.772Z,27.10
2018-04-10T14:45:44.779Z,27.43
2018-04-10T14:48:12.753Z,27.49
2018-04-10T14:50:40.807Z,27.26
2018-04-10T14:53:09.011Z,27.46
2018-04-10T14:55:37.155Z,27.20
2018-04-10T14:58:05.264Z,27.11
2018-04-10T15:00:33.325Z,27.91
2018-04-10T15:03:01.500Z,27.57
2018-04-10T15:05:29.490Z,27.48
2018-04-10T15:07:57.566Z,26.91
2018-04-10T15:10:25.659Z,26.50
2018-04-10T15:12:53.710Z,25.81
2018-04-10T15:15:21.802Z,26.04
2018-04-10T15:17:49.808Z,24.72
2018-04-10T15:20:17.815Z,24.70
2018-04-10T15:22:45.893Z,24.84
2018-04-10T15:25:14.275Z,25.16
2018-04-10T15:27:42.345Z,25.13
2018-04-10T15:30:10.365Z,24.77
2018-04-10T15:32:38.440Z,24.93
2018-04-10T15:35:06.620Z,24.60
2018-04-10T15:37:34.649Z,23.95
2018-04-10T15:40:02.708Z,24.09
2018-04-10T15:42:30.702Z,24.20
2018-04-10T15:44:58.686Z,23.79
2018-04-10T15:47:26.662Z,23.68
2018-04-10T15:49:54.724Z,23.61
2018-04-10T15:52:22.724Z,23.87
2018-04-10T15:54:50.736Z,23.83
2018-04-10T15:57:18.827Z,23.98
2018-04-10T15:59:46.901Z,24.01
2018-04-10T16:02:15.223Z,23.64
2018-04-10T16:04:43.242Z,24.03
2018-04-10T16:07:11.330Z,24.08
2018-04-10T16:09:39.293Z,23.48
2018-04-10T16:12:07.377Z,23.54
2018-04-10T16:14:35.408Z,23.58
2018-04-10T16:17:03.435Z,23.15
2018-04-10T16:19:31.541Z,23.87
2018-04-10T16:21:59.578Z,23.96
2018-04-10T16:24:27.715Z,23.51
2018-04-10T16:26:56.144Z,22.68
2018-04-10T16:29:24.194Z,22.68
2018-04-10T16:31:52.178Z,22.68
2018-04-10T16:34:20.207Z,22.51
2018-04-10T16:36:48.246Z,22.22
2018-04-10T16:39:16.332Z,22.59
2018-04-10T16:41:44.388Z,22.78
2018-04-10T16:44:12.457Z,22.47
2018-04-10T16:46:40.530Z,22.53
2018-04-10T16:49:08.586Z,22.56
2018-04-10T16:51:36.582Z,22.60
2018-04-10T16:54:04.656Z,22.43
2018-04-10T16:56:32.723Z,22.49
2018-04-10T16:59:00.816Z,22.46
2018-04-10T17:01:28.849Z,22.28
2018-04-10T17:03:56.929Z,22.26
2018-04-10T17:06:24.917Z,22.09
2018-04-10T17:08:52.970Z,22.02
2018-04-10T17:11:21.007Z,21.98
2018-04-10T17:13:49.034Z,21.91
2018-04-10T17:16:17.098Z,21.82
2018-04-10T17:18:45.109Z,21.78
2018-04-10T17:21:13.171Z,21.79
2018-04-10T17:23:41.290Z,21.74
2018-04-10T17:26:09.347Z,21.70
2018-04-10T17:28:37.676Z,21.57
2018-04-10T17:31:05.726Z,21.54
2018-04-10T17:33:33.752Z,21.44
2018-04-10T17:36:01.829Z,20.94
2018-04-10T17:38:29.838Z,21.10
2018-04-10T17:40:57.868Z,21.15
2018-04-10T17:43:25.986Z,21.20
2018-04-10T17:45:54.057Z,21.22
2018-04-10T17:48:22.068Z,21.22
2018-04-10T17:50:50.135Z,21.14
2018-04-10T17:53:18.251Z,21.17
2018-04-10T17:55:46.303Z,20.74
2018-04-10T17:58:14.346Z,20.92
2018-04-10T18:00:42.327Z,19.94
2018-04-10T18:03:10.393Z,19.98
2018-04-10T18:05:38.480Z,19.94
2018-04-10T18:08:06.551Z,20.07
2018-04-10T18:10:34.566Z,20.29
2018-04-10T18:13:02.531Z,20.44
2018-04-10T18:15:30.545Z,20.51
2018-04-10T18:17:58.542Z,20.50
2018-04-10T18:20:26.596Z,20.59
2018-04-10T18:22:54.580Z,20.34
2018-04-10T18:25:22.620Z,20.52
2018-04-10T18:27:50.704Z,20.39
2018-04-10T18:30:19.065Z,20.27
2018-04-10T18:32:47.090Z,20.38
2018-04-10T18:35:15.021Z,20.35
2018-04-10T18:37:43.090Z,20.28
2018-04-10T18:40:11.093Z,20.20
2018-04-10T18:42:39.160Z,20.01
2018-04-10T18:45:07.102Z,19.53
2018-04-10T18:47:35.121Z,19.64
2018-04-10T18:50:03.148Z,19.74
2018-04-10T18:52:31.110Z,19.81
2018-04-10T18:54:59.071Z,20.02
2018-04-10T18:57:27.073Z,20.08
2018-04-10T18:59:55.205Z,20.12
2018-04-10T19:02:23.289Z,19.96
2018-04-10T19:04:51.307Z,20.03
2018-04-10T19:07:19.323Z,20.02
2018-04-10T19:09:47.394Z,20.01
2018-04-10T19:12:15.413Z,19.92
2018-04-10T19:14:43.473Z,19.96
2018-04-10T19:17:11.471Z,19.89
2018-04-10T19:19:39.555Z,19.90
2018-04-10T19:22:07.671Z,19.78
2018-04-10T19:24:35.655Z,19.20
2018-04-10T19:27:03.730Z,19.67
2018-04-10T19:29:31.817Z,19.69
2018-04-10T19:32:00.075Z,19.73
2018-04-10T19:34:28.151Z,19.69
2018-04-10T19:36:56.180Z,19.65
2018-04-10T19:39:24.208Z,19.67
2018-04-10T19:41:52.258Z,19.62
2018-04-10T19:44:20.240Z,19.65
2018-04-10T19:46:48.270Z,19.53
2018-04-10T19:49:16.331Z,19.06
2018-04-10T19:51:44.417Z,18.35
2018-04-10T19:54:12.434Z,18.39
2018-04-10T19:56:40.480Z,17.71
2018-04-10T19:59:08.509Z,17.95
2018-04-10T20:01:36.501Z,18.44
2018-04-10T20:04:04.552Z,18.60
2018-04-10T20:06:32.621Z,18.57
2018-04-10T20:09:00.657Z,18.46
2018-04-10T20:11:28.728Z,18.64
2018-04-10T20:13:56.729Z,18.31
2018-04-10T20:16:24.862Z,18.31
2018-04-10T20:18:52.858Z,17.33
2018-04-10T20:21:20.959Z,17.40
2018-04-10T20:23:49.058Z,17.51
2018-04-10T20:26:17.148Z,17.19
2018-04-10T20:28:45.111Z,17.44
2018-04-10T20:31:13.136Z,16.89
2018-04-10T20:33:41.452Z,16.99
2018-04-10T20:36:09.463Z,16.79
2018-04-10T20:38:37.527Z,16.66
2018-04-10T20:41:05.527Z,16.91
2018-04-10T20:43:33.547Z,16.85
2018-04-10T20:46:01.531Z,17.12
2018-04-10T20:48:29.593Z,17.49
2018-04-10T20:50:57.592Z,17.76
2018-04-10T20:53:25.585Z,17.78
2018-04-10T20:55:53.573Z,17.93
2018-04-10T20:58:21.607Z,17.90
2018-04-10T21:00:49.760Z,17.69
2018-04-10T21:03:17.804Z,17.59
2018-04-10T21:05:45.787Z,17.44
2018-04-10T21:08:13.755Z,17.45
2018-04-10T21:10:41.721Z,16.92
2018-04-10T21:13:09.751Z,17.44
2018-04-10T21:15:37.732Z,17.62
2018-04-10T21:18:05.746Z,17.32
2018-04-10T21:20:33.758Z,16.77
2018-04-10T21:23:01.722Z,16.74
2018-04-10T21:25:29.693Z,17.00
2018-04-10T21:27:57.701Z,17.21
2018-04-10T21:30:25.705Z,17.40
2018-04-10T21:32:53.721Z,17.59
2018-04-10T21:35:22.140Z,17.60
2018-04-10T21:37:50.117Z,17.43
2018-04-10T21:40:18.095Z,16.62
2018-04-10T21:42:51.784Z,16.47
2018-04-10T21:45:19.790Z,16.95
2018-04-10T21:47:47.856Z,17.09
2018-04-10T21:50:15.810Z,17.18
2018-04-10T21:52:43.827Z,17.11
2018-04-10T21:55:11.922Z,17.08
2018-04-10T21:57:40.073Z,17.19
2018-04-10T22:00:08.077Z,17.18
2018-04-10T22:02:36.101Z,16.77
2018-04-10T22:05:04.166Z,16.94
2018-04-10T22:07:32.159Z,16.92
2018-04-10T22:10:00.191Z,17.12
2018-04-10T22:12:28.214Z,17.23
2018-04-10T22:14:56.194Z,17.05
2018-04-10T22:17:24.172Z,16.65
2018-04-10T22:19:52.170Z,16.78
2018-04-10T22:22:20.202Z,16.97
2018-04-10T22:24:48.245Z,16.91
2018-04-10T22:27:16.282Z,16.97
2018-04-10T22:29:44.265Z,16.97
2018-04-10T22:32:12.218Z,17.03
2018-04-10T22:34:40.271Z,16.99
2018-04-10T22:37:08.642Z,17.01
2018-04-10T22:39:36.656Z,17.01
2018-04-10T22:42:04.703Z,17.01
2018-04-10T22:44:32.774Z,16.98
2018-04-10T22:47:00.801Z,16.87
2018-04-10T22:49:28.870Z,16.85
2018-04-10T22:51:56.906Z,16.72
2018-04-10T22:54:25.926Z,16.76
2018-04-10T22:56:53.985Z,16.74
2018-04-10T22:59:21.947Z,16.75
2018-04-10T23:01:49.955Z,16.76
2018-04-10T23:04:17.974Z,16.84
2018-04-10T23:06:45.994Z,16.78
2018-04-10T23:09:14.027Z,16.74
2018-04-10T23:11:42.115Z,16.71
2018-04-10T23:14:10.150Z,16.56
2018-04-10T23:16:38.114Z,16.34
2018-04-10T23:19:06.123Z,16.24
2018-04-10T23:21:34.120Z,16.16
2018-04-10T23:24:02.183Z,16.22
2018-04-10T23:26:30.202Z,16.17
2018-04-10T23:28:58.138Z,16.24
2018-04-10T23:31:26.143Z,15.87
2018-04-10T23:33:54.262Z,15.75
2018-04-10T23:36:22.268Z,16.12
2018-04-10T23:38:50.945Z,16.25
2018-04-10T23:41:18.997Z,16.30
2018-04-10T23:43:47.123Z,16.35
2018-04-10T23:46:15.173Z,16.32
2018-04-10T23:48:43.205Z,16.24
2018-04-10T23:51:11.241Z,15.91
2018-04-10T23:53:39.277Z,15.80
2018-04-10T23:56:07.291Z,14.98
2018-04-10T23:58:35.352Z,15.51
